sensor_id;sensor_type;location;lat;lon;timestamp;P1;durP1;ratioP1;P2;durP2;ratioP2
45206;SDS011;30950;53.086;21.576;2023-02-15T00:00:06;16.50;;;10.75;;
45206;SDS011;30950;53.086;21.576;2023-02-15T00:02:57;17.80;;;11.07;;
45206;SDS011;30950;53.086;21.576;2023-02-15T00:05:24;18.83;;;10.70;;
45206;SDS011;30950;53.086;21.576;2023-02-15T00:07:52;22.70;;;11.80;;
45206;SDS011;30950;53.086;21.576;2023-02-15T00:10:19;23.08;;;12.05;;
45206;SDS011;30950;53.086;21.576;2023-02-15T00:12:46;21.02;;;12.55;;
45206;SDS011;30950;53.086;21.576;2023-02-15T00:15:13;21.75;;;13.10;;
45206;SDS011;30950;53.086;21.576;2023-02-15T00:17:41;22.77;;;14.07;;
45206;SDS011;30950;53.086;21.576;2023-02-15T00:20:08;21.83;;;13.23;;
45206;SDS011;30950;53.086;21.576;2023-02-15T00:22:36;22.77;;;12.20;;
45206;SDS011;30950;53.086;21.576;2023-02-15T00:25:03;20.30;;;10.63;;
45206;SDS011;30950;53.086;21.576;2023-02-15T00:27:32;22.13;;;12.23;;
45206;SDS011;30950;53.086;21.576;2023-02-15T00:30:01;24.27;;;12.02;;
45206;SDS011;30950;53.086;21.576;2023-02-15T00:32:29;22.83;;;12.98;;
45206;SDS011;30950;53.086;21.576;2023-02-15T00:34:56;20.25;;;11.63;;
45206;SDS011;30950;53.086;21.576;2023-02-15T00:37:24;21.35;;;11.88;;
45206;SDS011;30950;53.086;21.576;2023-02-15T00:39:51;19.42;;;11.65;;
45206;SDS011;30950;53.086;21.576;2023-02-15T00:42:19;18.58;;;11.95;;
45206;SDS011;30950;53.086;21.576;2023-02-15T00:44:46;22.15;;;11.65;;
45206;SDS011;30950;53.086;21.576;2023-02-15T00:47:13;22.13;;;12.85;;
45206;SDS011;30950;53.086;21.576;2023-02-15T00:49:40;22.23;;;13.43;;
45206;SDS011;30950;53.086;21.576;2023-02-15T00:52:08;25.45;;;13.57;;
45206;SDS011;30950;53.086;21.576;2023-02-15T00:54:35;20.17;;;12.27;;
45206;SDS011;30950;53.086;21.576;2023-02-15T00:57:05;23.63;;;11.18;;
45206;SDS011;30950;53.086;21.576;2023-02-15T00:59:33;23.75;;;12.30;;
45206;SDS011;30950;53.086;21.576;2023-02-15T01:02:01;21.60;;;12.40;;
45206;SDS011;30950;53.086;21.576;2023-02-15T01:04:28;24.42;;;11.93;;
45206;SDS011;30950;53.086;21.576;2023-02-15T01:06:56;18.13;;;11.73;;
45206;SDS011;30950;53.086;21.576;2023-02-15T01:09:23;23.90;;;13.43;;
45206;SDS011;30950;53.086;21.576;2023-02-15T01:11:51;17.67;;;12.07;;
45206;SDS011;30950;53.086;21.576;2023-02-15T01:14:18;22.77;;;14.10;;
45206;SDS011;30950;53.086;21.576;2023-02-15T01:16:46;21.08;;;12.07;;
45206;SDS011;30950;53.086;21.576;2023-02-15T01:19:13;26.63;;;14.95;;
45206;SDS011;30950;53.086;21.576;2023-02-15T01:21:41;22.73;;;12.23;;
45206;SDS011;30950;53.086;21.576;2023-02-15T01:24:14;29.17;;;15.20;;
45206;SDS011;30950;53.086;21.576;2023-02-15T01:26:43;23.80;;;13.43;;
45206;SDS011;30950;53.086;21.576;2023-02-15T01:29:10;22.95;;;13.13;;
45206;SDS011;30950;53.086;21.576;2023-02-15T01:31:38;23.48;;;13.05;;
45206;SDS011;30950;53.086;21.576;2023-02-15T01:34:05;23.75;;;13.75;;
45206;SDS011;30950;53.086;21.576;2023-02-15T01:36:33;26.35;;;13.77;;
45206;SDS011;30950;53.086;21.576;2023-02-15T01:39:01;25.35;;;13.48;;
45206;SDS011;30950;53.086;21.576;2023-02-15T01:41:30;22.52;;;13.85;;
45206;SDS011;30950;53.086;21.576;2023-02-15T01:44:00;24.42;;;12.82;;
45206;SDS011;30950;53.086;21.576;2023-02-15T01:46:35;26.85;;;13.07;;
45206;SDS011;30950;53.086;21.576;2023-02-15T01:49:10;25.88;;;13.02;;
45206;SDS011;30950;53.086;21.576;2023-02-15T01:51:42;19.65;;;12.30;;
45206;SDS011;30950;53.086;21.576;2023-02-15T01:56:39;22.98;;;12.05;;
45206;SDS011;30950;53.086;21.576;2023-02-15T01:59:09;21.02;;;12.70;;
45206;SDS011;30950;53.086;21.576;2023-02-15T02:01:42;21.30;;;12.43;;
45206;SDS011;30950;53.086;21.576;2023-02-15T02:04:15;26.05;;;13.75;;
45206;SDS011;30950;53.086;21.576;2023-02-15T02:06:49;22.75;;;12.55;;
45206;SDS011;30950;53.086;21.576;2023-02-15T02:09:17;20.55;;;12.63;;
45206;SDS011;30950;53.086;21.576;2023-02-15T02:11:46;20.42;;;11.30;;
45206;SDS011;30950;53.086;21.576;2023-02-15T02:14:15;21.67;;;11.88;;
45206;SDS011;30950;53.086;21.576;2023-02-15T02:34:19;24.95;;;14.68;;
45206;SDS011;30950;53.086;21.576;2023-02-15T02:36:53;23.73;;;13.63;;
45206;SDS011;30950;53.086;21.576;2023-02-15T02:45:01;23.42;;;13.63;;
45206;SDS011;30950;53.086;21.576;2023-02-15T02:47:48;28.40;;;14.23;;
45206;SDS011;30950;53.086;21.576;2023-02-15T02:50:23;20.70;;;12.02;;
45206;SDS011;30950;53.086;21.576;2023-02-15T02:52:55;24.75;;;13.10;;
45206;SDS011;30950;53.086;21.576;2023-02-15T02:55:30;36.20;;;14.95;;
45206;SDS011;30950;53.086;21.576;2023-02-15T02:58:25;23.95;;;12.13;;
45206;SDS011;30950;53.086;21.576;2023-02-15T03:01:13;23.77;;;13.07;;
45206;SDS011;30950;53.086;21.576;2023-02-15T03:03:57;22.35;;;12.52;;
45206;SDS011;30950;53.086;21.576;2023-02-15T03:06:33;26.50;;;14.65;;
45206;SDS011;30950;53.086;21.576;2023-02-15T03:09:20;24.65;;;12.90;;
45206;SDS011;30950;53.086;21.576;2023-02-15T03:11:49;23.52;;;12.68;;
45206;SDS011;30950;53.086;21.576;2023-02-15T03:14:18;30.15;;;14.57;;
45206;SDS011;30950;53.086;21.576;2023-02-15T03:16:48;28.90;;;15.13;;
45206;SDS011;30950;53.086;21.576;2023-02-15T03:19:27;25.00;;;13.60;;
45206;SDS011;30950;53.086;21.576;2023-02-15T03:22:06;27.80;;;12.80;;
45206;SDS011;30950;53.086;21.576;2023-02-15T03:24:44;23.25;;;12.00;;
45206;SDS011;30950;53.086;21.576;2023-02-15T03:27:20;29.33;;;13.05;;
45206;SDS011;30950;53.086;21.576;2023-02-15T03:29:53;21.88;;;12.32;;
45206;SDS011;30950;53.086;21.576;2023-02-15T03:32:24;20.58;;;11.48;;
45206;SDS011;30950;53.086;21.576;2023-02-15T03:34:54;19.77;;;12.02;;
45206;SDS011;30950;53.086;21.576;2023-02-15T03:40:33;28.13;;;12.80;;
45206;SDS011;30950;53.086;21.576;2023-02-15T03:46:35;24.23;;;12.10;;
45206;SDS011;30950;53.086;21.576;2023-02-15T03:52:07;26.30;;;12.82;;
45206;SDS011;30950;53.086;21.576;2023-02-15T03:54:37;22.13;;;12.00;;
45206;SDS011;30950;53.086;21.576;2023-02-15T03:57:19;21.10;;;10.82;;
45206;SDS011;30950;53.086;21.576;2023-02-15T04:00:09;18.30;;;10.63;;
45206;SDS011;30950;53.086;21.576;2023-02-15T04:03:42;19.10;;;11.10;;
45206;SDS011;30950;53.086;21.576;2023-02-15T04:05:49;20.60;;;11.02;;
45206;SDS011;30950;53.086;21.576;2023-02-15T04:08:17;17.33;;;10.40;;
45206;SDS011;30950;53.086;21.576;2023-02-15T04:10:44;21.30;;;11.85;;
45206;SDS011;30950;53.086;21.576;2023-02-15T04:13:29;17.95;;;9.30;;
45206;SDS011;30950;53.086;21.576;2023-02-15T04:15:58;18.40;;;9.65;;
45206;SDS011;30950;53.086;21.576;2023-02-15T04:18:40;18.85;;;9.07;;
45206;SDS011;30950;53.086;21.576;2023-02-15T04:21:28;15.23;;;8.88;;
45206;SDS011;30950;53.086;21.576;2023-02-15T04:24:15;17.33;;;9.20;;
45206;SDS011;30950;53.086;21.576;2023-02-15T04:27:02;17.17;;;8.48;;
45206;SDS011;30950;53.086;21.576;2023-02-15T04:29:31;15.45;;;8.55;;
45206;SDS011;30950;53.086;21.576;2023-02-15T04:31:59;15.27;;;8.82;;
45206;SDS011;30950;53.086;21.576;2023-02-15T04:34:27;16.38;;;9.75;;
45206;SDS011;30950;53.086;21.576;2023-02-15T04:36:55;14.65;;;8.88;;
45206;SDS011;30950;53.086;21.576;2023-02-15T04:39:22;15.20;;;8.05;;
45206;SDS011;30950;53.086;21.576;2023-02-15T04:41:50;17.45;;;8.48;;
45206;SDS011;30950;53.086;21.576;2023-02-15T04:44:17;18.20;;;9.88;;
45206;SDS011;30950;53.086;21.576;2023-02-15T04:46:45;15.55;;;8.73;;
45206;SDS011;30950;53.086;21.576;2023-02-15T04:49:12;17.30;;;10.32;;
45206;SDS011;30950;53.086;21.576;2023-02-15T04:51:40;25.75;;;11.10;;
45206;SDS011;30950;53.086;21.576;2023-02-15T04:54:07;16.45;;;9.60;;
45206;SDS011;30950;53.086;21.576;2023-02-15T04:56:34;19.92;;;9.85;;
45206;SDS011;30950;53.086;21.576;2023-02-15T04:59:04;20.52;;;10.82;;
45206;SDS011;30950;53.086;21.576;2023-02-15T05:01:32;25.45;;;9.07;;
45206;SDS011;30950;53.086;21.576;2023-02-15T05:03:59;16.83;;;9.98;;
45206;SDS011;30950;53.086;21.576;2023-02-15T05:06:26;19.35;;;10.48;;
45206;SDS011;30950;53.086;21.576;2023-02-15T05:08:54;20.33;;;10.27;;
45206;SDS011;30950;53.086;21.576;2023-02-15T05:11:21;20.50;;;12.00;;
45206;SDS011;30950;53.086;21.576;2023-02-15T05:13:48;20.70;;;11.63;;
45206;SDS011;30950;53.086;21.576;2023-02-15T05:16:16;22.77;;;11.70;;
45206;SDS011;30950;53.086;21.576;2023-02-15T05:18:44;23.63;;;12.75;;
45206;SDS011;30950;53.086;21.576;2023-02-15T05:21:12;25.45;;;11.70;;
45206;SDS011;30950;53.086;21.576;2023-02-15T05:23:40;22.33;;;10.50;;
45206;SDS011;30950;53.086;21.576;2023-02-15T05:26:10;25.98;;;12.32;;
45206;SDS011;30950;53.086;21.576;2023-02-15T05:28:57;19.85;;;12.00;;
45206;SDS011;30950;53.086;21.576;2023-02-15T05:31:24;27.52;;;13.77;;
45206;SDS011;30950;53.086;21.576;2023-02-15T05:33:52;27.27;;;11.57;;
45206;SDS011;30950;53.086;21.576;2023-02-15T05:36:19;24.27;;;12.02;;
45206;SDS011;30950;53.086;21.576;2023-02-15T05:38:47;19.92;;;11.57;;
45206;SDS011;30950;53.086;21.576;2023-02-15T05:41:14;17.10;;;10.07;;
45206;SDS011;30950;53.086;21.576;2023-02-15T05:43:42;19.73;;;8.65;;
45206;SDS011;30950;53.086;21.576;2023-02-15T05:46:09;23.85;;;14.00;;
45206;SDS011;30950;53.086;21.576;2023-02-15T05:48:38;32.50;;;17.25;;
45206;SDS011;30950;53.086;21.576;2023-02-15T05:51:06;21.50;;;13.93;;
45206;SDS011;30950;53.086;21.576;2023-02-15T05:53:37;22.05;;;11.45;;
45206;SDS011;30950;53.086;21.576;2023-02-15T05:56:07;108.47;;;55.10;;
45206;SDS011;30950;53.086;21.576;2023-02-15T05:58:36;28.00;;;15.75;;
45206;SDS011;30950;53.086;21.576;2023-02-15T06:01:10;22.98;;;12.20;;
45206;SDS011;30950;53.086;21.576;2023-02-15T06:03:42;33.70;;;20.20;;
45206;SDS011;30950;53.086;21.576;2023-02-15T06:06:09;23.55;;;12.93;;
45206;SDS011;30950;53.086;21.576;2023-02-15T06:08:37;18.00;;;10.57;;
45206;SDS011;30950;53.086;21.576;2023-02-15T06:11:05;31.60;;;21.83;;
45206;SDS011;30950;53.086;21.576;2023-02-15T06:13:33;27.38;;;12.95;;
45206;SDS011;30950;53.086;21.576;2023-02-15T06:16:04;30.42;;;14.85;;
45206;SDS011;30950;53.086;21.576;2023-02-15T06:18:32;21.90;;;12.90;;
45206;SDS011;30950;53.086;21.576;2023-02-15T06:21:01;17.63;;;10.70;;
45206;SDS011;30950;53.086;21.576;2023-02-15T06:23:28;25.73;;;15.95;;
45206;SDS011;30950;53.086;21.576;2023-02-15T06:25:56;19.67;;;12.00;;
45206;SDS011;30950;53.086;21.576;2023-02-15T06:28:23;63.40;;;41.03;;
45206;SDS011;30950;53.086;21.576;2023-02-15T06:30:52;17.63;;;9.52;;
45206;SDS011;30950;53.086;21.576;2023-02-15T06:33:19;14.85;;;9.10;;
45206;SDS011;30950;53.086;21.576;2023-02-15T06:35:48;13.60;;;8.68;;
45206;SDS011;30950;53.086;21.576;2023-02-15T06:38:15;14.38;;;7.82;;
45206;SDS011;30950;53.086;21.576;2023-02-15T06:40:44;71.47;;;43.80;;
45206;SDS011;30950;53.086;21.576;2023-02-15T06:43:11;14.75;;;8.75;;
45206;SDS011;30950;53.086;21.576;2023-02-15T06:45:38;14.98;;;8.77;;
45206;SDS011;30950;53.086;21.576;2023-02-15T06:48:07;16.13;;;7.65;;
45206;SDS011;30950;53.086;21.576;2023-02-15T06:50:35;13.15;;;8.82;;
45206;SDS011;30950;53.086;21.576;2023-02-15T06:53:02;13.15;;;7.25;;
45206;SDS011;30950;53.086;21.576;2023-02-15T06:55:29;16.70;;;10.25;;
45206;SDS011;30950;53.086;21.576;2023-02-15T06:57:57;12.82;;;7.50;;
45206;SDS011;30950;53.086;21.576;2023-02-15T07:00:24;15.90;;;10.63;;
45206;SDS011;30950;53.086;21.576;2023-02-15T07:02:55;12.38;;;7.57;;
45206;SDS011;30950;53.086;21.576;2023-02-15T07:05:25;13.18;;;6.80;;
45206;SDS011;30950;53.086;21.576;2023-02-15T07:07:58;12.35;;;7.38;;
45206;SDS011;30950;53.086;21.576;2023-02-15T07:10:28;22.35;;;14.65;;
45206;SDS011;30950;53.086;21.576;2023-02-15T07:12:55;25.30;;;18.13;;
45206;SDS011;30950;53.086;21.576;2023-02-15T07:15:23;13.93;;;8.48;;
45206;SDS011;30950;53.086;21.576;2023-02-15T07:17:50;15.93;;;8.02;;
45206;SDS011;30950;53.086;21.576;2023-02-15T07:20:19;15.25;;;8.32;;
45206;SDS011;30950;53.086;21.576;2023-02-15T07:22:48;15.60;;;8.52;;
45206;SDS011;30950;53.086;21.576;2023-02-15T07:25:16;213.77;;;112.82;;
45206;SDS011;30950;53.086;21.576;2023-02-15T07:27:43;23.50;;;13.55;;
45206;SDS011;30950;53.086;21.576;2023-02-15T07:30:13;20.48;;;10.45;;
45206;SDS011;30950;53.086;21.576;2023-02-15T07:32:42;58.20;;;36.90;;
45206;SDS011;30950;53.086;21.576;2023-02-15T07:35:31;61.50;;;34.63;;
45206;SDS011;30950;53.086;21.576;2023-02-15T07:37:59;92.80;;;51.85;;
45206;SDS011;30950;53.086;21.576;2023-02-15T07:40:27;14.85;;;8.60;;
45206;SDS011;30950;53.086;21.576;2023-02-15T07:42:57;15.20;;;8.77;;
45206;SDS011;30950;53.086;21.576;2023-02-15T07:45:26;14.63;;;7.43;;
45206;SDS011;30950;53.086;21.576;2023-02-15T07:47:53;15.60;;;8.00;;
45206;SDS011;30950;53.086;21.576;2023-02-15T07:50:21;31.40;;;22.27;;
45206;SDS011;30950;53.086;21.576;2023-02-15T07:52:48;26.48;;;17.02;;
45206;SDS011;30950;53.086;21.576;2023-02-15T07:55:16;18.35;;;10.48;;
45206;SDS011;30950;53.086;21.576;2023-02-15T07:57:44;18.80;;;11.73;;
45206;SDS011;30950;53.086;21.576;2023-02-15T08:00:13;19.15;;;9.45;;
45206;SDS011;30950;53.086;21.576;2023-02-15T08:02:42;32.28;;;20.40;;
45206;SDS011;30950;53.086;21.576;2023-02-15T08:05:15;23.52;;;14.18;;
45206;SDS011;30950;53.086;21.576;2023-02-15T08:07:43;21.33;;;12.10;;
45206;SDS011;30950;53.086;21.576;2023-02-15T08:10:10;41.72;;;26.08;;
45206;SDS011;30950;53.086;21.576;2023-02-15T08:12:58;17.50;;;7.60;;
45206;SDS011;30950;53.086;21.576;2023-02-15T08:15:25;15.20;;;8.38;;
45206;SDS011;30950;53.086;21.576;2023-02-15T08:17:52;15.18;;;8.73;;
45206;SDS011;30950;53.086;21.576;2023-02-15T08:20:20;17.35;;;8.27;;
45206;SDS011;30950;53.086;21.576;2023-02-15T08:22:47;25.75;;;12.65;;
45206;SDS011;30950;53.086;21.576;2023-02-15T08:25:14;22.60;;;15.00;;
45206;SDS011;30950;53.086;21.576;2023-02-15T08:27:41;18.13;;;11.38;;
45206;SDS011;30950;53.086;21.576;2023-02-15T08:30:09;17.55;;;10.75;;
45206;SDS011;30950;53.086;21.576;2023-02-15T08:32:37;18.73;;;9.38;;
45206;SDS011;30950;53.086;21.576;2023-02-15T08:35:04;15.32;;;8.55;;
45206;SDS011;30950;53.086;21.576;2023-02-15T08:37:32;15.10;;;8.82;;
45206;SDS011;30950;53.086;21.576;2023-02-15T08:39:59;15.18;;;9.00;;
45206;SDS011;30950;53.086;21.576;2023-02-15T08:42:26;13.43;;;7.97;;
45206;SDS011;30950;53.086;21.576;2023-02-15T08:44:54;15.25;;;8.40;;
45206;SDS011;30950;53.086;21.576;2023-02-15T08:47:21;15.10;;;8.02;;
45206;SDS011;30950;53.086;21.576;2023-02-15T08:49:48;17.20;;;9.88;;
45206;SDS011;30950;53.086;21.576;2023-02-15T08:52:17;19.25;;;10.48;;
45206;SDS011;30950;53.086;21.576;2023-02-15T08:54:45;23.13;;;13.73;;
45206;SDS011;30950;53.086;21.576;2023-02-15T08:57:12;19.83;;;10.77;;
45206;SDS011;30950;53.086;21.576;2023-02-15T08:59:39;24.77;;;14.13;;
45206;SDS011;30950;53.086;21.576;2023-02-15T09:02:08;22.25;;;11.43;;
45206;SDS011;30950;53.086;21.576;2023-02-15T09:04:37;20.85;;;10.25;;
45206;SDS011;30950;53.086;21.576;2023-02-15T09:07:04;24.67;;;13.98;;
45206;SDS011;30950;53.086;21.576;2023-02-15T09:09:32;20.80;;;10.05;;
45206;SDS011;30950;53.086;21.576;2023-02-15T09:11:59;21.20;;;11.20;;
45206;SDS011;30950;53.086;21.576;2023-02-15T09:14:26;20.33;;;11.05;;
45206;SDS011;30950;53.086;21.576;2023-02-15T09:16:54;22.75;;;13.35;;
45206;SDS011;30950;53.086;21.576;2023-02-15T09:19:22;25.48;;;11.60;;
45206;SDS011;30950;53.086;21.576;2023-02-15T09:21:50;29.90;;;13.27;;
45206;SDS011;30950;53.086;21.576;2023-02-15T09:24:18;39.03;;;21.40;;
45206;SDS011;30950;53.086;21.576;2023-02-15T09:26:46;29.38;;;12.52;;
45206;SDS011;30950;53.086;21.576;2023-02-15T09:29:15;29.35;;;16.70;;
45206;SDS011;30950;53.086;21.576;2023-02-15T09:31:47;32.03;;;11.48;;
45206;SDS011;30950;53.086;21.576;2023-02-15T09:34:17;26.63;;;14.45;;
45206;SDS011;30950;53.086;21.576;2023-02-15T09:36:47;22.55;;;13.80;;
45206;SDS011;30950;53.086;21.576;2023-02-15T09:39:19;19.70;;;10.88;;
45206;SDS011;30950;53.086;21.576;2023-02-15T09:50:43;31.02;;;16.48;;
45206;SDS011;30950;53.086;21.576;2023-02-15T10:12:33;26.98;;;12.23;;
45206;SDS011;30950;53.086;21.576;2023-02-15T10:15:19;26.65;;;13.52;;
45206;SDS011;30950;53.086;21.576;2023-02-15T10:26:12;41.75;;;24.10;;
45206;SDS011;30950;53.086;21.576;2023-02-15T10:31:47;35.03;;;18.63;;
45206;SDS011;30950;53.086;21.576;2023-02-15T10:34:18;32.03;;;16.15;;
45206;SDS011;30950;53.086;21.576;2023-02-15T10:45:23;40.47;;;20.50;;
45206;SDS011;30950;53.086;21.576;2023-02-15T10:50:45;29.60;;;15.27;;
45206;SDS011;30950;53.086;21.576;2023-02-15T10:56:01;28.52;;;14.77;;
45206;SDS011;30950;53.086;21.576;2023-02-15T11:06:44;34.95;;;16.52;;
45206;SDS011;30950;53.086;21.576;2023-02-15T11:09:19;35.83;;;17.48;;
45206;SDS011;30950;53.086;21.576;2023-02-15T11:11:50;34.85;;;16.90;;
45206;SDS011;30950;53.086;21.576;2023-02-15T11:14:54;33.40;;;18.02;;
45206;SDS011;30950;53.086;21.576;2023-02-15T11:17:33;33.65;;;16.27;;
45206;SDS011;30950;53.086;21.576;2023-02-15T11:20:11;32.38;;;16.77;;
45206;SDS011;30950;53.086;21.576;2023-02-15T11:22:48;37.88;;;20.48;;
45206;SDS011;30950;53.086;21.576;2023-02-15T11:25:30;37.20;;;19.00;;
45206;SDS011;30950;53.086;21.576;2023-02-15T11:28:03;41.70;;;21.65;;
45206;SDS011;30950;53.086;21.576;2023-02-15T11:30:43;42.28;;;21.63;;
45206;SDS011;30950;53.086;21.576;2023-02-15T11:33:15;40.00;;;20.20;;
45206;SDS011;30950;53.086;21.576;2023-02-15T11:35:50;39.63;;;20.60;;
45206;SDS011;30950;53.086;21.576;2023-02-15T11:38:33;44.42;;;21.55;;
45206;SDS011;30950;53.086;21.576;2023-02-15T11:41:04;47.38;;;26.70;;
45206;SDS011;30950;53.086;21.576;2023-02-15T11:43:43;32.38;;;17.05;;
45206;SDS011;30950;53.086;21.576;2023-02-15T11:46:16;35.47;;;18.23;;
45206;SDS011;30950;53.086;21.576;2023-02-15T11:48:45;38.05;;;20.08;;
45206;SDS011;30950;53.086;21.576;2023-02-15T11:51:16;37.90;;;20.65;;
45206;SDS011;30950;53.086;21.576;2023-02-15T11:53:49;34.50;;;17.60;;
45206;SDS011;30950;53.086;21.576;2023-02-15T11:56:24;34.72;;;17.42;;
45206;SDS011;30950;53.086;21.576;2023-02-15T11:58:57;31.85;;;17.40;;
45206;SDS011;30950;53.086;21.576;2023-02-15T12:02:00;36.13;;;19.70;;
45206;SDS011;30950;53.086;21.576;2023-02-15T12:04:34;30.17;;;15.90;;
45206;SDS011;30950;53.086;21.576;2023-02-15T12:07:17;33.47;;;17.70;;
45206;SDS011;30950;53.086;21.576;2023-02-15T12:10:04;31.05;;;17.45;;
45206;SDS011;30950;53.086;21.576;2023-02-15T12:12:44;34.65;;;17.98;;
45206;SDS011;30950;53.086;21.576;2023-02-15T12:15:12;37.58;;;18.50;;
45206;SDS011;30950;53.086;21.576;2023-02-15T12:17:58;33.38;;;16.95;;
45206;SDS011;30950;53.086;21.576;2023-02-15T12:20:32;30.77;;;15.35;;
45206;SDS011;30950;53.086;21.576;2023-02-15T12:23:03;32.70;;;17.55;;
45206;SDS011;30950;53.086;21.576;2023-02-15T12:25:42;38.63;;;19.33;;
45206;SDS011;30950;53.086;21.576;2023-02-15T12:28:30;37.67;;;19.48;;
45206;SDS011;30950;53.086;21.576;2023-02-15T12:31:01;37.38;;;18.85;;
45206;SDS011;30950;53.086;21.576;2023-02-15T12:33:35;36.47;;;19.25;;
45206;SDS011;30950;53.086;21.576;2023-02-15T12:36:22;34.83;;;18.70;;
45206;SDS011;30950;53.086;21.576;2023-02-15T12:39:05;37.88;;;20.38;;
45206;SDS011;30950;53.086;21.576;2023-02-15T12:41:44;35.88;;;19.83;;
45206;SDS011;30950;53.086;21.576;2023-02-15T12:44:24;35.33;;;17.88;;
45206;SDS011;30950;53.086;21.576;2023-02-15T12:49:27;34.95;;;18.02;;
45206;SDS011;30950;53.086;21.576;2023-02-15T12:51:57;35.80;;;18.08;;
45206;SDS011;30950;53.086;21.576;2023-02-15T12:57:23;38.13;;;17.98;;
45206;SDS011;30950;53.086;21.576;2023-02-15T12:59:53;39.40;;;18.48;;
45206;SDS011;30950;53.086;21.576;2023-02-15T13:05:38;39.63;;;21.08;;
45206;SDS011;30950;53.086;21.576;2023-02-15T13:08:20;43.25;;;19.45;;
45206;SDS011;30950;53.086;21.576;2023-02-15T13:10:54;37.58;;;18.70;;
45206;SDS011;30950;53.086;21.576;2023-02-15T13:13:32;41.78;;;21.98;;
45206;SDS011;30950;53.086;21.576;2023-02-15T13:16:09;39.90;;;22.25;;
45206;SDS011;30950;53.086;21.576;2023-02-15T13:18:39;39.53;;;20.27;;
45206;SDS011;30950;53.086;21.576;2023-02-15T13:21:18;43.40;;;24.17;;
45206;SDS011;30950;53.086;21.576;2023-02-15T13:23:49;47.28;;;24.33;;
45206;SDS011;30950;53.086;21.576;2023-02-15T13:26:21;47.85;;;25.23;;
45206;SDS011;30950;53.086;21.576;2023-02-15T13:28:51;44.47;;;22.52;;
45206;SDS011;30950;53.086;21.576;2023-02-15T13:31:26;50.30;;;24.58;;
45206;SDS011;30950;53.086;21.576;2023-02-15T13:34:01;54.83;;;28.58;;
45206;SDS011;30950;53.086;21.576;2023-02-15T13:36:54;55.38;;;27.65;;
45206;SDS011;30950;53.086;21.576;2023-02-15T13:39:40;48.65;;;24.63;;
45206;SDS011;30950;53.086;21.576;2023-02-15T13:42:30;53.78;;;26.20;;
45206;SDS011;30950;53.086;21.576;2023-02-15T13:53:39;60.65;;;29.67;;
45206;SDS011;30950;53.086;21.576;2023-02-15T14:07:01;80.30;;;40.10;;
45206;SDS011;30950;53.086;21.576;2023-02-15T14:12:33;83.95;;;39.33;;
45206;SDS011;30950;53.086;21.576;2023-02-15T14:18:01;71.88;;;32.13;;
45206;SDS011;30950;53.086;21.576;2023-02-15T14:21:42;77.65;;;35.60;;
45206;SDS011;30950;53.086;21.576;2023-02-15T14:23:54;80.43;;;38.08;;
45206;SDS011;30950;53.086;21.576;2023-02-15T14:31:34;91.50;;;39.20;;
45206;SDS011;30950;53.086;21.576;2023-02-15T14:34:19;84.13;;;36.90;;
45206;SDS011;30950;53.086;21.576;2023-02-15T14:36:54;91.20;;;39.00;;
45206;SDS011;30950;53.086;21.576;2023-02-15T14:45:34;102.47;;;49.40;;
45206;SDS011;30950;53.086;21.576;2023-02-15T14:48:21;95.75;;;46.00;;
45206;SDS011;30950;53.086;21.576;2023-02-15T14:50:50;92.13;;;39.92;;
45206;SDS011;30950;53.086;21.576;2023-02-15T14:58:33;90.45;;;40.42;;
45206;SDS011;30950;53.086;21.576;2023-02-15T15:01:11;88.25;;;39.75;;
45206;SDS011;30950;53.086;21.576;2023-02-15T15:03:43;82.88;;;37.03;;
45206;SDS011;30950;53.086;21.576;2023-02-15T15:06:24;80.80;;;36.75;;
45206;SDS011;30950;53.086;21.576;2023-02-15T15:09:05;87.97;;;39.15;;
45206;SDS011;30950;53.086;21.576;2023-02-15T15:14:15;77.90;;;36.95;;
45206;SDS011;30950;53.086;21.576;2023-02-15T15:17:01;82.22;;;36.47;;
45206;SDS011;30950;53.086;21.576;2023-02-15T15:19:56;74.75;;;35.60;;
45206;SDS011;30950;53.086;21.576;2023-02-15T15:22:26;65.60;;;33.00;;
45206;SDS011;30950;53.086;21.576;2023-02-15T15:24:59;76.32;;;30.92;;
45206;SDS011;30950;53.086;21.576;2023-02-15T15:27:47;64.60;;;30.80;;
45206;SDS011;30950;53.086;21.576;2023-02-15T15:35:35;72.07;;;34.40;;
45206;SDS011;30950;53.086;21.576;2023-02-15T15:38:23;71.85;;;34.60;;
45206;SDS011;30950;53.086;21.576;2023-02-15T15:41:48;70.85;;;31.02;;
45206;SDS011;30950;53.086;21.576;2023-02-15T15:47:39;70.25;;;32.75;;
45206;SDS011;30950;53.086;21.576;2023-02-15T15:50:31;70.45;;;33.45;;
45206;SDS011;30950;53.086;21.576;2023-02-15T15:52:58;78.03;;;34.90;;
45206;SDS011;30950;53.086;21.576;2023-02-15T15:55:29;76.15;;;34.65;;
45206;SDS011;30950;53.086;21.576;2023-02-15T15:58:02;77.15;;;32.45;;
45206;SDS011;30950;53.086;21.576;2023-02-15T16:03:14;72.57;;;33.40;;
45206;SDS011;30950;53.086;21.576;2023-02-15T16:05:49;71.35;;;33.83;;
45206;SDS011;30950;53.086;21.576;2023-02-15T16:08:55;70.65;;;33.33;;
45206;SDS011;30950;53.086;21.576;2023-02-15T16:11:22;75.65;;;32.88;;
45206;SDS011;30950;53.086;21.576;2023-02-15T16:13:51;75.15;;;35.42;;
45206;SDS011;30950;53.086;21.576;2023-02-15T16:16:21;79.88;;;37.03;;
45206;SDS011;30950;53.086;21.576;2023-02-15T16:18:51;69.05;;;32.15;;
45206;SDS011;30950;53.086;21.576;2023-02-15T16:21:20;79.13;;;34.53;;
45206;SDS011;30950;53.086;21.576;2023-02-15T16:23:54;69.43;;;34.10;;
45206;SDS011;30950;53.086;21.576;2023-02-15T16:29:15;76.32;;;34.10;;
45206;SDS011;30950;53.086;21.576;2023-02-15T16:34:59;66.65;;;33.13;;
45206;SDS011;30950;53.086;21.576;2023-02-15T16:37:36;74.88;;;34.00;;
45206;SDS011;30950;53.086;21.576;2023-02-15T16:40:04;63.42;;;29.52;;
45206;SDS011;30950;53.086;21.576;2023-02-15T16:42:33;76.75;;;34.50;;
45206;SDS011;30950;53.086;21.576;2023-02-15T16:45:08;77.50;;;36.47;;
45206;SDS011;30950;53.086;21.576;2023-02-15T16:47:42;74.95;;;32.47;;
45206;SDS011;30950;53.086;21.576;2023-02-15T16:50:56;69.13;;;30.83;;
45206;SDS011;30950;53.086;21.576;2023-02-15T16:53:05;66.65;;;31.77;;
45206;SDS011;30950;53.086;21.576;2023-02-15T16:55:41;78.60;;;38.38;;
45206;SDS011;30950;53.086;21.576;2023-02-15T16:58:13;64.18;;;29.48;;
45206;SDS011;30950;53.086;21.576;2023-02-15T17:00:43;58.55;;;28.77;;
45206;SDS011;30950;53.086;21.576;2023-02-15T17:05:52;61.15;;;29.92;;
45206;SDS011;30950;53.086;21.576;2023-02-15T17:11:14;63.85;;;30.60;;
45206;SDS011;30950;53.086;21.576;2023-02-15T17:16:32;58.92;;;29.92;;
45206;SDS011;30950;53.086;21.576;2023-02-15T17:19:17;55.22;;;27.52;;
45206;SDS011;30950;53.086;21.576;2023-02-15T17:22:04;53.97;;;27.25;;
45206;SDS011;30950;53.086;21.576;2023-02-15T17:24:37;55.40;;;27.60;;
45206;SDS011;30950;53.086;21.576;2023-02-15T17:27:14;52.97;;;25.35;;
45206;SDS011;30950;53.086;21.576;2023-02-15T17:29:51;47.60;;;23.05;;
45206;SDS011;30950;53.086;21.576;2023-02-15T17:32:25;49.30;;;25.95;;
45206;SDS011;30950;53.086;21.576;2023-02-15T17:40:47;57.17;;;27.95;;
45206;SDS011;30950;53.086;21.576;2023-02-15T17:43:14;58.45;;;29.15;;